sensor_id;sensor_type;location;lat;lon;timestamp;pressure;altitude;pressure_sealevel;temperature;humidity
6224;BME280;3145;42.726;23.342;2023-04-05T00:00:58;73487.69;;;-142.70;79.57
6224;BME280;3145;42.726;23.342;2023-04-05T00:03:25;73485.69;;;-142.70;79.63
6224;BME280;3145;42.726;23.342;2023-04-05T00:05:53;73481.66;;;-142.70;79.73
6224;BME280;3145;42.726;23.342;2023-04-05T00:08:20;73477.63;;;-142.70;79.56
6224;BME280;3145;42.726;23.342;2023-04-05T00:10:51;73475.63;;;-142.70;80.07
6224;BME280;3145;42.726;23.342;2023-04-05T00:13:18;73491.72;;;-142.70;79.99
6224;BME280;3145;42.726;23.342;2023-04-05T00:15:47;73491.72;;;-142.70;79.60
6224;BME280;3145;42.726;23.342;2023-04-05T00:18:13;73491.72;;;-142.70;79.88
6224;BME280;3145;42.726;23.342;2023-04-05T00:20:46;73495.75;;;-142.70;80.23
6224;BME280;3145;42.726;23.342;2023-04-05T00:23:13;73475.63;;;-142.70;80.08
6224;BME280;3145;42.726;23.342;2023-04-05T00:25:41;73479.66;;;-142.70;80.16
6224;BME280;3145;42.726;23.342;2023-04-05T00:28:08;73485.69;;;-142.70;79.33
6224;BME280;3145;42.726;23.342;2023-04-05T00:30:34;73479.66;;;-142.70;79.36
6224;BME280;3145;42.726;23.342;2023-04-05T00:33:02;73481.66;;;-142.70;79.49
6224;BME280;3145;42.726;23.342;2023-04-05T00:35:29;73473.59;;;-142.70;79.54
6224;BME280;3145;42.726;23.342;2023-04-05T00:37:56;73471.59;;;-142.70;79.66
6224;BME280;3145;42.726;23.342;2023-04-05T00:40:23;73483.69;;;-142.70;79.76
6224;BME280;3145;42.726;23.342;2023-04-05T00:42:50;73483.69;;;-142.70;79.51
6224;BME280;3145;42.726;23.342;2023-04-05T00:45:17;73479.66;;;-142.70;79.18
6224;BME280;3145;42.726;23.342;2023-04-05T00:47:44;73479.66;;;-142.70;79.33
6224;BME280;3145;42.726;23.342;2023-04-05T00:50:12;73479.66;;;-142.70;79.33
6224;BME280;3145;42.726;23.342;2023-04-05T00:52:40;73479.66;;;-142.70;79.11
6224;BME280;3145;42.726;23.342;2023-04-05T00:55:09;73475.63;;;-142.70;79.16
6224;BME280;3145;42.726;23.342;2023-04-05T00:57:36;73477.63;;;-142.70;78.98
6224;BME280;3145;42.726;23.342;2023-04-05T01:00:05;73489.72;;;-142.70;79.44
6224;BME280;3145;42.726;23.342;2023-04-05T01:02:35;73477.63;;;-142.70;79.14
6224;BME280;3145;42.726;23.342;2023-04-05T01:05:18;73491.72;;;-142.70;79.25
6224;BME280;3145;42.726;23.342;2023-04-05T01:07:52;73489.72;;;-142.70;79.18
6224;BME280;3145;42.726;23.342;2023-04-05T01:10:21;73479.66;;;-142.70;79.44
6224;BME280;3145;42.726;23.342;2023-04-05T01:12:50;73481.66;;;-142.70;79.47
6224;BME280;3145;42.726;23.342;2023-04-05T01:15:17;73463.53;;;-142.70;79.45
6224;BME280;3145;42.726;23.342;2023-04-05T01:17:45;73481.66;;;-142.70;78.78
6224;BME280;3145;42.726;23.342;2023-04-05T01:20:14;73475.63;;;-142.70;79.23
6224;BME280;3145;42.726;23.342;2023-04-05T01:23:04;73481.66;;;-142.70;78.60
6224;BME280;3145;42.726;23.342;2023-04-05T01:31:50;73491.72;;;-142.70;78.50
6224;BME280;3145;42.726;23.342;2023-04-05T01:34:26;73479.66;;;-142.70;78.41
6224;BME280;3145;42.726;23.342;2023-04-05T01:37:00;73489.72;;;-142.70;78.39
6224;BME280;3145;42.726;23.342;2023-04-05T01:39:29;73505.84;;;-142.70;78.29
6224;BME280;3145;42.726;23.342;2023-04-05T01:41:57;73499.78;;;-142.70;78.17
6224;BME280;3145;42.726;23.342;2023-04-05T01:44:25;73497.78;;;-142.70;78.08
6224;BME280;3145;42.726;23.342;2023-04-05T01:46:53;73495.75;;;-142.70;77.92
6224;BME280;3145;42.726;23.342;2023-04-05T01:49:20;73495.75;;;-142.70;78.11
6224;BME280;3145;42.726;23.342;2023-04-05T01:51:47;73481.66;;;-142.70;78.26
6224;BME280;3145;42.726;23.342;2023-04-05T01:54:13;73481.66;;;-142.70;78.21
6224;BME280;3145;42.726;23.342;2023-04-05T01:56:40;73483.69;;;-142.70;77.68
6224;BME280;3145;42.726;23.342;2023-04-05T01:59:07;73477.63;;;-142.70;77.57
6224;BME280;3145;42.726;23.342;2023-04-05T02:01:34;73475.63;;;-142.70;77.77
6224;BME280;3145;42.726;23.342;2023-04-05T02:04:02;73469.56;;;-142.70;77.47
6224;BME280;3145;42.726;23.342;2023-04-05T02:06:29;73471.59;;;-142.70;76.63
6224;BME280;3145;42.726;23.342;2023-04-05T02:08:56;73471.59;;;-142.70;76.84
6224;BME280;3145;42.726;23.342;2023-04-05T02:11:23;73479.66;;;-142.70;76.90
6224;BME280;3145;42.726;23.342;2023-04-05T02:13:50;73491.72;;;-142.70;76.94
6224;BME280;3145;42.726;23.342;2023-04-05T02:16:16;73479.66;;;-142.70;76.80
6224;BME280;3145;42.726;23.342;2023-04-05T02:18:43;73489.72;;;-142.70;76.90
6224;BME280;3145;42.726;23.342;2023-04-05T02:21:16;73489.72;;;-142.70;77.08
6224;BME280;3145;42.726;23.342;2023-04-05T02:23:43;73497.78;;;-142.70;76.78
6224;BME280;3145;42.726;23.342;2023-04-05T02:26:09;73491.72;;;-142.70;76.44
6224;BME280;3145;42.726;23.342;2023-04-05T02:28:36;73491.72;;;-142.70;76.83
6224;BME280;3145;42.726;23.342;2023-04-05T02:31:07;73501.81;;;-142.70;76.56
6224;BME280;3145;42.726;23.342;2023-04-05T02:33:35;73495.75;;;-142.70;76.67
6224;BME280;3145;42.726;23.342;2023-04-05T02:36:03;73501.81;;;-142.70;76.61
6224;BME280;3145;42.726;23.342;2023-04-05T02:38:32;73503.81;;;-142.70;76.42
6224;BME280;3145;42.726;23.342;2023-04-05T02:40:59;73499.78;;;-142.70;76.80
6224;BME280;3145;42.726;23.342;2023-04-05T02:43:26;73491.72;;;-142.70;76.97
6224;BME280;3145;42.726;23.342;2023-04-05T02:45:53;73493.75;;;-142.70;77.21
6224;BME280;3145;42.726;23.342;2023-04-05T02:48:20;73507.84;;;-142.70;76.42
6224;BME280;3145;42.726;23.342;2023-04-05T02:50:47;73503.81;;;-142.70;76.46
6224;BME280;3145;42.726;23.342;2023-04-05T02:53:14;73495.75;;;-142.70;76.82
6224;BME280;3145;42.726;23.342;2023-04-05T02:55:42;73495.75;;;-142.70;76.82
6224;BME280;3145;42.726;23.342;2023-04-05T02:58:09;73491.72;;;-142.70;76.49
6224;BME280;3145;42.726;23.342;2023-04-05T03:00:36;73499.78;;;-142.70;76.47
6224;BME280;3145;42.726;23.342;2023-04-05T03:03:03;73493.75;;;-142.70;76.32
6224;BME280;3145;42.726;23.342;2023-04-05T03:05:30;73491.72;;;-142.70;76.62
6224;BME280;3145;42.726;23.342;2023-04-05T03:07:56;73487.69;;;-142.70;76.91
6224;BME280;3145;42.726;23.342;2023-04-05T03:10:23;73487.69;;;-142.70;77.15
6224;BME280;3145;42.726;23.342;2023-04-05T03:12:54;73491.72;;;-142.70;76.52
6224;BME280;3145;42.726;23.342;2023-04-05T03:15:21;73479.66;;;-142.70;76.82
6224;BME280;3145;42.726;23.342;2023-04-05T03:17:48;73479.66;;;-142.70;77.76
6224;BME280;3145;42.726;23.342;2023-04-05T03:20:15;73459.50;;;-142.70;78.13
6224;BME280;3145;42.726;23.342;2023-04-05T03:22:41;73459.50;;;-142.70;77.49
6224;BME280;3145;42.726;23.342;2023-04-05T03:25:08;73447.41;;;-142.70;77.74
6224;BME280;3145;42.726;23.342;2023-04-05T03:27:35;73449.41;;;-142.70;77.28
6224;BME280;3145;42.726;23.342;2023-04-05T03:30:05;73427.25;;;-142.70;79.29
6224;BME280;3145;42.726;23.342;2023-04-05T03:32:32;73423.22;;;-142.70;78.76
6224;BME280;3145;42.726;23.342;2023-04-05T03:34:59;73415.16;;;-142.70;78.39
6224;BME280;3145;42.726;23.342;2023-04-05T03:37:26;73425.25;;;-142.70;76.59
6224;BME280;3145;42.726;23.342;2023-04-05T03:39:53;73447.41;;;-142.70;75.89
6224;BME280;3145;42.726;23.342;2023-04-05T03:42:19;73475.63;;;-142.70;76.06
6224;BME280;3145;42.726;23.342;2023-04-05T03:44:51;73475.63;;;-142.70;75.83
6224;BME280;3145;42.726;23.342;2023-04-05T03:47:19;73471.59;;;-142.70;75.56
6224;BME280;3145;42.726;23.342;2023-04-05T03:49:46;73479.66;;;-142.70;76.06
6224;BME280;3145;42.726;23.342;2023-04-05T03:52:13;73495.75;;;-142.70;75.64
6224;BME280;3145;42.726;23.342;2023-04-05T03:54:39;73491.72;;;-142.70;75.96
6224;BME280;3145;42.726;23.342;2023-04-05T03:57:06;73495.75;;;-142.70;76.23
6224;BME280;3145;42.726;23.342;2023-04-05T03:59:33;73493.75;;;-142.70;76.41
6224;BME280;3145;42.726;23.342;2023-04-05T04:02:00;73493.75;;;-142.70;76.20
6224;BME280;3145;42.726;23.342;2023-04-05T04:04:28;73499.78;;;-142.70;76.37
6224;BME280;3145;42.726;23.342;2023-04-05T04:06:55;73499.78;;;-142.70;76.60
6224;BME280;3145;42.726;23.342;2023-04-05T04:09:22;73505.84;;;-142.70;76.58
6224;BME280;3145;42.726;23.342;2023-04-05T04:11:49;73507.84;;;-142.70;76.58
6224;BME280;3145;42.726;23.342;2023-04-05T04:14:16;73501.81;;;-142.70;76.07
6224;BME280;3145;42.726;23.342;2023-04-05T04:16:42;73499.78;;;-142.70;76.60
6224;BME280;3145;42.726;23.342;2023-04-05T04:19:09;73511.88;;;-142.70;76.22
6224;BME280;3145;42.726;23.342;2023-04-05T04:21:37;73499.78;;;-142.70;76.28
6224;BME280;3145;42.726;23.342;2023-04-05T04:24:05;73501.81;;;-142.70;76.35
6224;BME280;3145;42.726;23.342;2023-04-05T04:26:32;73503.81;;;-142.70;75.98
6224;BME280;3145;42.726;23.342;2023-04-05T04:29:01;73499.78;;;-142.70;75.67
6224;BME280;3145;42.726;23.342;2023-04-05T04:31:30;73487.69;;;-142.70;75.95
6224;BME280;3145;42.726;23.342;2023-04-05T04:33:58;73487.69;;;-142.70;76.12
6224;BME280;3145;42.726;23.342;2023-04-05T04:36:26;73483.69;;;-142.70;76.46
6224;BME280;3145;42.726;23.342;2023-04-05T04:39:02;73487.69;;;-142.70;76.38
6224;BME280;3145;42.726;23.342;2023-04-05T04:41:31;73477.63;;;-142.70;76.49
6224;BME280;3145;42.726;23.342;2023-04-05T04:44:00;73481.66;;;-142.70;76.70
6224;BME280;3145;42.726;23.342;2023-04-05T04:46:27;73475.63;;;-142.70;76.49
6224;BME280;3145;42.726;23.342;2023-04-05T04:48:59;73489.72;;;-142.70;76.38
6224;BME280;3145;42.726;23.342;2023-04-05T04:51:30;73483.69;;;-142.70;76.39
6224;BME280;3145;42.726;23.342;2023-04-05T04:53:56;73491.72;;;-142.70;76.37
6224;BME280;3145;42.726;23.342;2023-04-05T04:56:24;73483.69;;;-142.70;77.00
6224;BME280;3145;42.726;23.342;2023-04-05T04:58:53;73487.69;;;-142.70;76.81
6224;BME280;3145;42.726;23.342;2023-04-05T05:01:20;73495.75;;;-142.70;76.14
6224;BME280;3145;42.726;23.342;2023-04-05T05:03:49;73479.66;;;-142.70;76.29
6224;BME280;3145;42.726;23.342;2023-04-05T05:06:16;73487.69;;;-142.70;75.78
6224;BME280;3145;42.726;23.342;2023-04-05T05:08:43;73487.69;;;-142.70;75.41
6224;BME280;3145;42.726;23.342;2023-04-05T05:11:10;73477.63;;;-142.70;74.94
6224;BME280;3145;42.726;23.342;2023-04-05T05:13:38;73487.69;;;-142.70;75.23
6224;BME280;3145;42.726;23.342;2023-04-05T05:16:07;73477.63;;;-142.70;75.55
6224;BME280;3145;42.726;23.342;2023-04-05T05:18:34;73471.59;;;-142.70;75.63
6224;BME280;3145;42.726;23.342;2023-04-05T05:21:01;73467.56;;;-142.70;75.54
6224;BME280;3145;42.726;23.342;2023-04-05T05:23:27;73457.47;;;-142.70;75.52
6224;BME280;3145;42.726;23.342;2023-04-05T05:25:56;73467.56;;;-142.70;74.71
6224;BME280;3145;42.726;23.342;2023-04-05T05:28:23;73463.53;;;-142.70;74.91
6224;BME280;3145;42.726;23.342;2023-04-05T05:30:51;73449.41;;;-142.70;74.74
6224;BME280;3145;42.726;23.342;2023-04-05T05:33:18;73467.56;;;-142.70;73.67
6224;BME280;3145;42.726;23.342;2023-04-05T05:35:47;73455.47;;;-142.70;73.54
6224;BME280;3145;42.726;23.342;2023-04-05T05:38:14;73447.41;;;-142.70;73.58
6224;BME280;3145;42.726;23.342;2023-04-05T05:40:41;73449.41;;;-142.70;73.07
6224;BME280;3145;42.726;23.342;2023-04-05T05:43:07;73439.34;;;-142.70;73.20
6224;BME280;3145;42.726;23.342;2023-04-05T05:45:35;73431.28;;;-142.70;73.13
6224;BME280;3145;42.726;23.342;2023-04-05T05:48:04;73425.25;;;-142.70;72.85
6224;BME280;3145;42.726;23.342;2023-04-05T05:50:31;73427.25;;;-142.70;72.57
6224;BME280;3145;42.726;23.342;2023-04-05T05:52:57;73423.22;;;-142.70;72.64
6224;BME280;3145;42.726;23.342;2023-04-05T05:55:24;73407.09;;;-142.70;72.59
6224;BME280;3145;42.726;23.342;2023-04-05T05:57:51;73415.16;;;-142.70;71.77
6224;BME280;3145;42.726;23.342;2023-04-05T06:00:19;73407.09;;;-142.70;71.63
6224;BME280;3145;42.726;23.342;2023-04-05T06:02:45;73382.91;;;-142.70;71.81
6224;BME280;3145;42.726;23.342;2023-04-05T06:05:14;73374.88;;;-142.70;71.61
6224;BME280;3145;42.726;23.342;2023-04-05T06:07:40;73358.75;;;-142.70;71.41
6224;BME280;3145;42.726;23.342;2023-04-05T06:10:08;73370.84;;;-142.70;70.65
6224;BME280;3145;42.726;23.342;2023-04-05T06:12:36;73364.78;;;-142.70;70.27
6224;BME280;3145;42.726;23.342;2023-04-05T06:15:04;73370.84;;;-142.70;70.19
6224;BME280;3145;42.726;23.342;2023-04-05T06:17:31;73356.72;;;-142.70;70.50
6224;BME280;3145;42.726;23.342;2023-04-05T06:19:58;73342.63;;;-142.70;70.07
6224;BME280;3145;42.726;23.342;2023-04-05T06:22:26;73332.53;;;-142.70;68.90
6224;BME280;3145;42.726;23.342;2023-04-05T06:24:54;73334.56;;;-142.70;68.54
6224;BME280;3145;42.726;23.342;2023-04-05T06:27:20;73342.63;;;-142.70;68.01
6224;BME280;3145;42.726;23.342;2023-04-05T06:29:47;73350.69;;;-142.70;67.72
6224;BME280;3145;42.726;23.342;2023-04-05T06:32:14;73330.53;;;-142.70;67.96
6224;BME280;3145;42.726;23.342;2023-04-05T06:34:41;73318.44;;;-142.70;67.55
6224;BME280;3145;42.726;23.342;2023-04-05T06:37:10;73310.38;;;-142.70;67.15
6224;BME280;3145;42.726;23.342;2023-04-05T06:39:38;73302.31;;;-142.70;67.15
6224;BME280;3145;42.726;23.342;2023-04-05T06:42:05;73322.47;;;-142.70;66.88
6224;BME280;3145;42.726;23.342;2023-04-05T06:44:32;73300.31;;;-142.70;66.91
6224;BME280;3145;42.726;23.342;2023-04-05T06:46:59;73290.22;;;-142.70;67.19
6224;BME280;3145;42.726;23.342;2023-04-05T06:49:25;73306.34;;;-142.70;66.23
6224;BME280;3145;42.726;23.342;2023-04-05T06:51:52;73302.31;;;-142.70;66.06
6224;BME280;3145;42.726;23.342;2023-04-05T06:54:19;73302.31;;;-142.70;66.39
6224;BME280;3145;42.726;23.342;2023-04-05T06:56:50;73292.25;;;-142.70;66.21
6224;BME280;3145;42.726;23.342;2023-04-05T06:59:16;73286.19;;;-142.70;65.92
6224;BME280;3145;42.726;23.342;2023-04-05T07:01:43;73270.09;;;-142.70;65.51
6224;BME280;3145;42.726;23.342;2023-04-05T07:04:11;73290.22;;;-142.70;65.44
6224;BME280;3145;42.726;23.342;2023-04-05T07:06:38;73286.19;;;-142.70;65.56
6224;BME280;3145;42.726;23.342;2023-04-05T07:09:04;73288.22;;;-142.70;64.69
6224;BME280;3145;42.726;23.342;2023-04-05T07:11:31;73288.22;;;-142.70;64.69
6224;BME280;3145;42.726;23.342;2023-04-05T07:13:59;73278.16;;;-142.70;64.94
6224;BME280;3145;42.726;23.342;2023-04-05T07:16:26;73282.16;;;-142.70;64.73
6224;BME280;3145;42.726;23.342;2023-04-05T07:18:54;73292.25;;;-142.70;64.83
6224;BME280;3145;42.726;23.342;2023-04-05T07:21:21;73294.25;;;-142.70;64.74
6224;BME280;3145;42.726;23.342;2023-04-05T07:23:48;73292.25;;;-142.70;64.84
6224;BME280;3145;42.726;23.342;2023-04-05T07:26:16;73322.47;;;-142.70;64.31
6224;BME280;3145;42.726;23.342;2023-04-05T07:28:43;73322.47;;;-142.70;64.04
6224;BME280;3145;42.726;23.342;2023-04-05T07:31:13;73328.50;;;-142.70;64.02
6224;BME280;3145;42.726;23.342;2023-04-05T07:33:40;73326.50;;;-142.70;63.65
6224;BME280;3145;42.726;23.342;2023-04-05T07:36:08;73336.56;;;-142.70;64.05
6224;BME280;3145;42.726;23.342;2023-04-05T07:38:35;73326.50;;;-142.70;64.43
6224;BME280;3145;42.726;23.342;2023-04-05T07:41:01;73328.50;;;-142.70;64.28
6224;BME280;3145;42.726;23.342;2023-04-05T07:43:28;73322.47;;;-142.70;64.55
6224;BME280;3145;42.726;23.342;2023-04-05T07:46:00;73332.53;;;-142.70;64.91
6224;BME280;3145;42.726;23.342;2023-04-05T07:48:28;73330.53;;;-142.70;65.31
6224;BME280;3145;42.726;23.342;2023-04-05T07:50:57;73328.50;;;-142.70;65.32
6224;BME280;3145;42.726;23.342;2023-04-05T07:53:28;73322.47;;;-142.70;64.99
6224;BME280;3145;42.726;23.342;2023-04-05T07:55:54;73310.38;;;-142.70;65.14
6224;BME280;3145;42.726;23.342;2023-04-05T07:58:23;73304.34;;;-142.70;65.01
6224;BME280;3145;42.726;23.342;2023-04-05T08:00:50;73312.41;;;-142.70;64.36
6224;BME280;3145;42.726;23.342;2023-04-05T08:03:18;73322.47;;;-142.70;64.54
6224;BME280;3145;42.726;23.342;2023-04-05T08:05:46;73346.66;;;-142.70;63.64
6224;BME280;3145;42.726;23.342;2023-04-05T08:08:13;73348.66;;;-142.70;63.81
6224;BME280;3145;42.726;23.342;2023-04-05T08:10:40;73358.75;;;-142.70;64.58
6224;BME280;3145;42.726;23.342;2023-04-05T08:13:07;73350.69;;;-142.70;63.83
6224;BME280;3145;42.726;23.342;2023-04-05T08:15:33;73354.72;;;-142.70;63.88
6224;BME280;3145;42.726;23.342;2023-04-05T08:18:01;73378.88;;;-142.70;64.61
6224;BME280;3145;42.726;23.342;2023-04-05T08:20:28;73382.91;;;-142.70;64.36
6224;BME280;3145;42.726;23.342;2023-04-05T08:22:56;73390.97;;;-142.70;64.17
6224;BME280;3145;42.726;23.342;2023-04-05T08:25:22;73374.88;;;-142.70;64.50
6224;BME280;3145;42.726;23.342;2023-04-05T08:27:49;73393.00;;;-142.70;63.97
6224;BME280;3145;42.726;23.342;2023-04-05T08:30:16;73390.97;;;-142.70;64.38
6224;BME280;3145;42.726;23.342;2023-04-05T08:32:44;73395.00;;;-142.70;64.89
6224;BME280;3145;42.726;23.342;2023-04-05T08:35:11;73370.84;;;-142.70;65.03
6224;BME280;3145;42.726;23.342;2023-04-05T08:37:37;73358.75;;;-142.70;64.81
6224;BME280;3145;42.726;23.342;2023-04-05T08:40:07;73346.66;;;-142.70;64.58
6224;BME280;3145;42.726;23.342;2023-04-05T08:42:36;73328.50;;;-142.70;64.71
6224;BME280;3145;42.726;23.342;2023-04-05T08:45:08;73326.50;;;-142.70;64.08
6224;BME280;3145;42.726;23.342;2023-04-05T08:47:36;73332.53;;;-142.70;63.38
6224;BME280;3145;42.726;23.342;2023-04-05T08:50:04;73342.63;;;-142.70;63.60
6224;BME280;3145;42.726;23.342;2023-04-05T08:52:32;73366.81;;;-142.70;64.00
6224;BME280;3145;42.726;23.342;2023-04-05T08:55:02;73350.69;;;-142.70;64.03
6224;BME280;3145;42.726;23.342;2023-04-05T08:57:31;73362.78;;;-142.70;64.17
6224;BME280;3145;42.726;23.342;2023-04-05T08:59:59;73354.72;;;-142.70;64.36
6224;BME280;3145;42.726;23.342;2023-04-05T09:02:28;73372.84;;;-142.70;64.53
6224;BME280;3145;42.726;23.342;2023-04-05T09:04:55;73358.75;;;-142.70;65.01
6224;BME280;3145;42.726;23.342;2023-04-05T09:07:24;73350.69;;;-142.70;65.07
6224;BME280;3145;42.726;23.342;2023-04-05T09:09:52;73342.63;;;-142.70;64.40
6224;BME280;3145;42.726;23.342;2023-04-05T09:12:20;73346.66;;;-142.70;63.76
6224;BME280;3145;42.726;23.342;2023-04-05T09:14:49;73328.50;;;-142.70;63.76
6224;BME280;3145;42.726;23.342;2023-04-05T09:17:17;73326.50;;;-142.70;63.93
6224;BME280;3145;42.726;23.342;2023-04-05T09:19:44;73310.38;;;-142.70;63.69
6224;BME280;3145;42.726;23.342;2023-04-05T09:22:10;73306.34;;;-142.70;62.47
6224;BME280;3145;42.726;23.342;2023-04-05T09:24:41;73320.47;;;-142.70;62.63
6224;BME280;3145;42.726;23.342;2023-04-05T09:27:09;73306.34;;;-142.70;62.50
6224;BME280;3145;42.726;23.342;2023-04-05T09:29:37;73288.22;;;-142.70;62.15
6224;BME280;3145;42.726;23.342;2023-04-05T09:32:07;73258.00;;;-142.70;61.80
6224;BME280;3145;42.726;23.342;2023-04-05T09:34:34;73229.78;;;-142.70;61.16
6224;BME280;3145;42.726;23.342;2023-04-05T09:37:03;73217.69;;;-142.70;60.04
6224;BME280;3145;42.726;23.342;2023-04-05T09:39:37;73219.72;;;-142.70;60.11
6224;BME280;3145;42.726;23.342;2023-04-05T09:42:10;73193.53;;;-142.70;59.65
6224;BME280;3145;42.726;23.342;2023-04-05T09:44:51;73217.69;;;-142.70;58.92
6224;BME280;3145;42.726;23.342;2023-04-05T09:47:20;73225.75;;;-142.70;58.74
6224;BME280;3145;42.726;23.342;2023-04-05T09:49:47;73203.59;;;-142.70;59.10
6224;BME280;3145;42.726;23.342;2023-04-05T09:52:21;73187.47;;;-142.70;58.56
6224;BME280;3145;42.726;23.342;2023-04-05T09:54:50;73165.31;;;-142.70;57.56
6224;BME280;3145;42.726;23.342;2023-04-05T09:57:17;73137.09;;;-142.70;57.31
6224;BME280;3145;42.726;23.342;2023-04-05T09:59:45;73116.94;;;-142.70;55.72
6224;BME280;3145;42.726;23.342;2023-04-05T10:02:12;73120.97;;;-142.70;54.59
6224;BME280;3145;42.726;23.342;2023-04-05T10:04:41;73133.06;;;-142.70;52.65
6224;BME280;3145;42.726;23.342;2023-04-05T10:07:08;73118.97;;;-142.70;51.60
6224;BME280;3145;42.726;23.342;2023-04-05T10:09:37;73072.63;;;-142.70;52.39
6224;BME280;3145;42.726;23.342;2023-04-05T10:12:06;73010.16;;;-142.70;51.07
6224;BME280;3145;42.726;23.342;2023-04-05T10:14:33;73006.13;;;-142.70;50.02
6224;BME280;3145;42.726;23.342;2023-04-05T10:17:10;72959.78;;;-142.70;48.21
6224;BME280;3145;42.726;23.342;2023-04-05T10:19:50;72988.00;;;-142.70;45.73
6224;BME280;3145;42.726;23.342;2023-04-05T10:22:22;72975.91;;;-142.70;46.08
6224;BME280;3145;42.726;23.342;2023-04-05T10:24:53;72967.84;;;-142.70;45.85
6224;BME280;3145;42.726;23.342;2023-04-05T10:27:30;72971.88;;;-142.70;45.06
6224;BME280;3145;42.726;23.342;2023-04-05T10:30:05;72915.47;;;-142.70;45.19
6224;BME280;3145;42.726;23.342;2023-04-05T10:32:54;72903.38;;;-142.70;44.65
6224;BME280;3145;42.726;23.342;2023-04-05T10:35:30;72834.88;;;-142.70;44.47
6224;BME280;3145;42.726;23.342;2023-04-05T10:38:11;72826.81;;;-142.70;43.78
6224;BME280;3145;42.726;23.342;2023-04-05T10:40:42;72842.94;;;-142.70;43.38
6224;BME280;3145;42.726;23.342;2023-04-05T10:43:16;72857.03;;;-142.70;42.25
6224;BME280;3145;42.726;23.342;2023-04-05T10:45:47;72899.34;;;-142.70;43.51
6224;BME280;3145;42.726;23.342;2023-04-05T10:48:17;72883.25;;;-142.70;43.76
6224;BME280;3145;42.726;23.342;2023-04-05T10:50:48;72865.09;;;-142.70;42.90
6224;BME280;3145;42.726;23.342;2023-04-05T10:53:15;72869.13;;;-142.70;41.69
6224;BME280;3145;42.726;23.342;2023-04-05T10:55:43;72921.50;;;-142.70;43.57
6224;BME280;3145;42.726;23.342;2023-04-05T10:58:10;72891.28;;;-142.70;44.03
6224;BME280;3145;42.726;23.342;2023-04-05T11:00:38;72851.00;;;-142.70;43.33
6224;BME280;3145;42.726;23.342;2023-04-05T11:03:05;72871.16;;;-142.70;43.21
6224;BME280;3145;42.726;23.342;2023-04-05T11:05:33;72945.69;;;-142.70;43.29
6224;BME280;3145;42.726;23.342;2023-04-05T11:08:04;72895.31;;;-142.70;43.10
6224;BME280;3145;42.726;23.342;2023-04-05T11:10:34;72927.56;;;-142.70;43.36
6224;BME280;3145;42.726;23.342;2023-04-05T11:13:08;72955.78;;;-142.70;43.36
6224;BME280;3145;42.726;23.342;2023-04-05T11:15:35;72959.78;;;-142.70;43.33
6224;BME280;3145;42.726;23.342;2023-04-05T11:18:04;73000.09;;;-142.70;43.08
6224;BME280;3145;42.726;23.342;2023-04-05T11:20:45;72992.03;;;-142.70;43.56
6224;BME280;3145;42.726;23.342;2023-04-05T11:23:14;73028.31;;;-142.70;43.47
6224;BME280;3145;42.726;23.342;2023-04-05T11:25:45;73012.19;;;-142.70;44.09
6224;BME280;3145;42.726;23.342;2023-04-05T11:28:28;73020.25;;;-142.70;44.73
6224;BME280;3145;42.726;23.342;2023-04-05T11:30:56;72986.00;;;-142.70;43.67
6224;BME280;3145;42.726;23.342;2023-04-05T11:33:37;72994.06;;;-142.70;44.13
6224;BME280;3145;42.726;23.342;2023-04-05T11:36:04;72943.69;;;-142.70;43.42
6224;BME280;3145;42.726;23.342;2023-04-05T11:38:32;72873.16;;;-142.70;43.18
6224;BME280;3145;42.726;23.342;2023-04-05T11:41:06;72842.94;;;-142.70;41.20
6224;BME280;3145;42.726;23.342;2023-04-05T11:43:37;72859.06;;;-142.70;41.73
6224;BME280;3145;42.726;23.342;2023-04-05T11:46:04;72838.91;;;-142.70;41.83
6224;BME280;3145;42.726;23.342;2023-04-05T11:48:31;72865.09;;;-142.70;41.69
6224;BME280;3145;42.726;23.342;2023-04-05T11:50:59;72889.28;;;-142.70;42.03
6224;BME280;3145;42.726;23.342;2023-04-05T11:53:26;72883.25;;;-142.70;42.65
6224;BME280;3145;42.726;23.342;2023-04-05T11:55:54;72883.25;;;-142.70;42.00
6224;BME280;3145;42.726;23.342;2023-04-05T11:58:23;72959.78;;;-142.70;42.59
6224;BME280;3145;42.726;23.342;2023-04-05T12:00:57;72951.75;;;-142.70;43.35
6224;BME280;3145;42.726;23.342;2023-04-05T12:03:25;72947.72;;;-142.70;43.17
6224;BME280;3145;42.726;23.342;2023-04-05T12:05:54;72919.50;;;-142.70;42.99
6224;BME280;3145;42.726;23.342;2023-04-05T12:08:22;72907.41;;;-142.70;44.70
6224;BME280;3145;42.726;23.342;2023-04-05T12:10:54;72907.41;;;-142.70;43.20
6224;BME280;3145;42.726;23.342;2023-04-05T12:13:26;72871.16;;;-142.70;42.88
6224;BME280;3145;42.726;23.342;2023-04-05T12:15:56;72899.34;;;-142.70;43.02
6224;BME280;3145;42.726;23.342;2023-04-05T12:18:24;72907.41;;;-142.70;43.71
6224;BME280;3145;42.726;23.342;2023-04-05T12:20:51;72895.31;;;-142.70;44.36
6224;BME280;3145;42.726;23.342;2023-04-05T12:23:18;72859.06;;;-142.70;43.46
6224;BME280;3145;42.726;23.342;2023-04-05T12:25:49;72911.44;;;-142.70;42.99
6224;BME280;3145;42.726;23.342;2023-04-05T12:28:20;72903.38;;;-142.70;43.33
6224;BME280;3145;42.726;23.342;2023-04-05T12:30:53;72931.59;;;-142.70;43.27
6224;BME280;3145;42.726;23.342;2023-04-05T12:33:25;72943.69;;;-142.70;44.87
6224;BME280;3145;42.726;23.342;2023-04-05T12:35:53;72931.59;;;-142.70;43.83
6224;BME280;3145;42.726;23.342;2023-04-05T12:38:24;72929.56;;;-142.70;44.00
6224;BME280;3145;42.726;23.342;2023-04-05T12:40:52;72943.69;;;-142.70;43.79
6224;BME280;3145;42.726;23.342;2023-04-05T12:43:20;72963.81;;;-142.70;44.80
6224;BME280;3145;42.726;23.342;2023-04-05T12:45:48;73014.19;;;-142.70;45.23
6224;BME280;3145;42.726;23.342;2023-04-05T12:48:20;73032.31;;;-142.70;45.48
6224;BME280;3145;42.726;23.342;2023-04-05T12:50:48;73044.41;;;-142.70;45.33
6224;BME280;3145;42.726;23.342;2023-04-05T12:53:19;73012.19;;;-142.70;46.71
6224;BME280;3145;42.726;23.342;2023-04-05T12:55:50;73004.13;;;-142.70;43.67
6224;BME280;3145;42.726;23.342;2023-04-05T12:58:20;73000.09;;;-142.70;44.12
6224;BME280;3145;42.726;23.342;2023-04-05T13:00:48;73024.28;;;-142.70;43.32
6224;BME280;3145;42.726;23.342;2023-04-05T13:03:16;73026.28;;;-142.70;43.29